createdAt,value
2022-10-23T00:01:56.592Z,11.11
2022-10-23T00:04:26.416Z,11.08
2022-10-23T00:06:53.194Z,10.88
2022-10-23T00:09:23.517Z,10.75
2022-10-23T00:11:51.109Z,10.95
2022-10-23T00:14:21.491Z,11.15
2022-10-23T00:16:48.026Z,11.32
2022-10-23T00:19:14.825Z,11.05
2022-10-23T00:21:41.426Z,11.10
2022-10-23T00:26:39.395Z,10.86
2022-10-23T00:29:07.098Z,10.71
2022-10-23T00:31:34.874Z,10.74
2022-10-23T00:34:02.034Z,10.71
2022-10-23T00:36:28.651Z,10.57
2022-10-23T00:38:55.177Z,10.59
2022-10-23T00:41:25.968Z,10.70
2022-10-23T00:44:02.840Z,10.72
2022-10-23T00:46:29.774Z,10.87
2022-10-23T00:48:57.195Z,10.85
2022-10-23T00:51:27.659Z,10.81
2022-10-23T00:54:06.539Z,10.88
2022-10-23T00:56:45.818Z,10.99
2022-10-23T00:59:12.878Z,10.91
2022-10-23T01:01:40.164Z,10.74
2022-10-23T01:04:07.935Z,10.75
2022-10-23T01:06:46.723Z,10.80
2022-10-23T01:09:22.907Z,10.64
2022-10-23T01:12:07.697Z,10.41
2022-10-23T01:14:58.497Z,10.44
2022-10-23T01:17:32.888Z,10.43
2022-10-23T01:20:38.140Z,10.35
2022-10-23T01:23:12.006Z,10.38
2022-10-23T01:25:52.110Z,10.32
2022-10-23T01:28:28.749Z,10.30
2022-10-23T01:30:59.489Z,10.30
2022-10-23T01:33:49.096Z,10.28
2022-10-23T01:36:27.380Z,10.40
2022-10-23T01:39:00.470Z,10.60
2022-10-23T01:41:34.086Z,10.38
2022-10-23T01:44:21.951Z,10.47
2022-10-23T01:46:50.412Z,10.36
2022-10-23T01:49:18.713Z,10.25
2022-10-23T01:51:55.462Z,10.24
2022-10-23T01:54:30.347Z,10.38
2022-10-23T01:56:58.716Z,10.20
2022-10-23T01:59:37.151Z,10.24
2022-10-23T02:02:06.764Z,10.30
2022-10-23T02:04:40.821Z,10.22
2022-10-23T02:07:07.866Z,10.21
2022-10-23T02:09:34.806Z,10.13
2022-10-23T02:12:13.364Z,10.38
2022-10-23T02:14:50.502Z,10.36
2022-10-23T02:17:25.342Z,10.19
2022-10-23T02:20:17.059Z,10.17
2022-10-23T02:22:54.080Z,10.15
2022-10-23T02:25:30.735Z,10.16
2022-10-23T02:28:01.070Z,10.29
2022-10-23T02:30:41.056Z,10.16
2022-10-23T02:33:11.804Z,10.14
2022-10-23T02:35:38.499Z,10.09
2022-10-23T02:38:34.822Z,10.06
2022-10-23T02:41:06.642Z,10.10
2022-10-23T02:43:43.001Z,10.23
2022-10-23T02:46:12.651Z,10.07
2022-10-23T02:48:45.837Z,10.06
2022-10-23T02:51:21.669Z,10.07
2022-10-23T02:54:12.058Z,10.08
2022-10-23T02:56:38.950Z,10.03
2022-10-23T02:59:16.612Z,10.00
2022-10-23T03:01:46.202Z,10.17
2022-10-23T03:04:15.992Z,10.21
2022-10-23T03:06:43.008Z,10.34
2022-10-23T03:09:17.362Z,10.24
2022-10-23T03:11:44.058Z,10.19
2022-10-23T03:14:13.205Z,10.33
2022-10-23T03:16:39.941Z,10.41
2022-10-23T03:19:08.868Z,10.57
2022-10-23T03:21:35.706Z,10.57
2022-10-23T03:24:06.227Z,10.54
2022-10-23T03:26:37.853Z,10.45
2022-10-23T03:29:04.753Z,10.33
2022-10-23T03:31:31.429Z,10.40
2022-10-23T03:33:59.896Z,10.30
2022-10-23T03:36:26.588Z,10.32
2022-10-23T03:38:53.522Z,10.25
2022-10-23T03:41:20.956Z,10.29
2022-10-23T03:43:47.671Z,10.30
2022-10-23T03:46:14.329Z,10.30
2022-10-23T03:48:42.117Z,10.47
2022-10-23T03:51:09.120Z,10.52
2022-10-23T03:53:35.734Z,10.42
2022-10-23T03:56:04.270Z,10.26
2022-10-23T03:58:33.971Z,10.26
2022-10-23T04:01:00.648Z,10.19
2022-10-23T04:03:27.313Z,10.24
2022-10-23T04:05:53.874Z,10.32
2022-10-23T04:08:22.274Z,10.36
2022-10-23T04:10:51.793Z,10.25
2022-10-23T04:13:21.783Z,10.23
2022-10-23T04:15:49.982Z,10.29
2022-10-23T04:18:17.276Z,10.27
2022-10-23T04:20:44.188Z,10.20
2022-10-23T04:23:10.895Z,10.15
2022-10-23T04:25:39.999Z,10.11
2022-10-23T04:28:07.963Z,10.26
2022-10-23T04:30:38.013Z,10.00
2022-10-23T04:33:05.606Z,10.15
2022-10-23T04:35:32.271Z,10.18
2022-10-23T04:37:59.621Z,10.27
2022-10-23T04:40:26.243Z,10.12
2022-10-23T04:42:54.511Z,10.18
2022-10-23T04:45:21.350Z,10.09
2022-10-23T04:47:47.902Z,10.09
2022-10-23T04:50:15.534Z,10.19
2022-10-23T04:53:00.724Z,10.22
2022-10-23T04:55:50.998Z,10.15
2022-10-23T04:58:26.026Z,10.07
2022-10-23T05:00:53.223Z,10.10
2022-10-23T05:03:25.175Z,10.09
2022-10-23T05:05:55.391Z,10.01
2022-10-23T05:08:40.224Z,10.08
2022-10-23T05:11:06.776Z,10.08
2022-10-23T05:13:38.656Z,10.07
2022-10-23T05:16:05.608Z,10.09
2022-10-23T05:18:40.595Z,10.13
2022-10-23T05:21:13.749Z,10.02
2022-10-23T05:23:42.285Z,9.92
2022-10-23T05:26:08.981Z,9.81
2022-10-23T05:28:36.554Z,9.75
2022-10-23T05:31:05.150Z,9.79
2022-10-23T05:33:34.874Z,9.82
2022-10-23T05:36:01.896Z,9.88
2022-10-23T05:38:30.496Z,9.96
2022-10-23T05:40:57.291Z,9.90
2022-10-23T05:43:24.030Z,9.89
2022-10-23T05:45:59.535Z,9.87
2022-10-23T05:48:44.785Z,9.91
2022-10-23T05:51:29.849Z,9.85
2022-10-23T05:54:17.508Z,9.83
2022-10-23T05:56:55.601Z,9.83
2022-10-23T05:59:29.929Z,9.79
2022-10-23T06:02:22.433Z,9.81
2022-10-23T06:04:57.914Z,9.84
2022-10-23T06:07:40.567Z,9.81
2022-10-23T06:10:08.029Z,9.83
2022-10-23T06:12:39.567Z,9.79
2022-10-23T06:15:06.972Z,9.79
2022-10-23T06:17:54.126Z,9.75
2022-10-23T06:20:23.137Z,9.76
2022-10-23T06:23:02.150Z,9.82
2022-10-23T06:25:55.859Z,9.79
2022-10-23T06:28:30.582Z,9.81
2022-10-23T06:30:58.005Z,9.74
2022-10-23T06:33:24.586Z,9.75
2022-10-23T06:35:51.337Z,9.73
2022-10-23T06:38:17.935Z,9.75
2022-10-23T06:40:56.894Z,9.79
2022-10-23T06:43:31.267Z,9.78
2022-10-23T06:46:20.416Z,9.73
2022-10-23T06:49:22.365Z,9.75
2022-10-23T06:51:49.984Z,9.71
2022-10-23T06:54:20.812Z,9.80
2022-10-23T06:56:50.093Z,9.81
2022-10-23T06:59:23.233Z,9.82
2022-10-23T07:01:52.024Z,9.80
2022-10-23T07:04:18.630Z,9.86
2022-10-23T07:06:45.306Z,9.98
2022-10-23T07:09:11.938Z,10.00
2022-10-23T07:12:07.522Z,10.09
2022-10-23T07:14:42.809Z,10.14
2022-10-23T07:17:09.457Z,10.17
2022-10-23T07:19:36.190Z,10.29
2022-10-23T07:22:09.732Z,10.33
2022-10-23T07:24:53.508Z,10.29
2022-10-23T07:27:25.461Z,10.36
2022-10-23T07:29:55.949Z,10.44
2022-10-23T07:32:24.448Z,10.48
2022-10-23T07:35:12.396Z,10.61
2022-10-23T07:37:43.174Z,10.69
2022-10-23T07:40:10.526Z,10.63
2022-10-23T07:42:43.207Z,10.70
2022-10-23T07:45:11.383Z,10.75
2022-10-23T07:47:41.350Z,10.73
2022-10-23T07:50:09.579Z,10.76
2022-10-23T07:52:36.444Z,10.87
2022-10-23T07:55:10.264Z,10.84
2022-10-23T07:57:40.152Z,11.00
2022-10-23T08:00:14.626Z,10.98
2022-10-23T08:02:41.530Z,11.07
2022-10-23T08:05:10.270Z,10.98
2022-10-23T08:07:51.778Z,10.92
2022-10-23T08:10:18.339Z,10.95
2022-10-23T08:12:45.603Z,10.99
2022-10-23T08:15:13.135Z,10.99
2022-10-23T08:17:51.410Z,11.17
2022-10-23T08:20:43.182Z,11.30
2022-10-23T08:23:12.331Z,11.29
2022-10-23T08:25:40.637Z,11.26
2022-10-23T08:28:08.968Z,11.28
2022-10-23T08:30:43.694Z,11.38
2022-10-23T08:33:11.186Z,11.37
2022-10-23T08:35:38.442Z,11.38
2022-10-23T08:38:06.637Z,11.40
2022-10-23T08:40:38.823Z,11.56
2022-10-23T08:43:38.876Z,11.59
2022-10-23T08:46:25.755Z,11.67
2022-10-23T08:49:13.850Z,11.62
2022-10-23T08:51:50.202Z,11.68
2022-10-23T08:54:35.212Z,11.57
2022-10-23T08:57:09.279Z,11.58
2022-10-23T08:59:46.393Z,11.62
2022-10-23T09:02:22.433Z,11.74
2022-10-23T09:04:51.913Z,11.78
2022-10-23T09:07:39.264Z,11.81
2022-10-23T09:10:18.358Z,11.88
2022-10-23T09:12:45.162Z,11.85
2022-10-23T09:15:35.303Z,12.03
2022-10-23T09:18:11.684Z,12.01
2022-10-23T09:20:41.314Z,12.13
2022-10-23T09:23:17.730Z,12.20
2022-10-23T09:25:45.514Z,12.17
2022-10-23T09:28:25.098Z,12.39
2022-10-23T09:30:52.311Z,12.35
2022-10-23T09:33:23.710Z,12.38
2022-10-23T09:36:05.712Z,12.51
2022-10-23T09:38:39.742Z,12.22
2022-10-23T09:41:07.781Z,12.51
2022-10-23T09:43:34.399Z,12.47
2022-10-23T09:46:06.504Z,12.59
2022-10-23T09:48:34.992Z,12.77
2022-10-23T09:51:04.304Z,12.86
2022-10-23T09:53:36.854Z,12.88
2022-10-23T09:56:26.093Z,12.83
2022-10-23T09:58:58.999Z,12.88
2022-10-23T10:01:45.239Z,12.88
2022-10-23T10:04:33.470Z,12.91
2022-10-23T10:07:02.139Z,12.87
2022-10-23T10:09:29.021Z,13.00
2022-10-23T10:12:01.851Z,13.02
2022-10-23T10:14:46.744Z,13.06
2022-10-23T10:17:25.333Z,13.11
2022-10-23T10:20:14.511Z,13.09
2022-10-23T10:23:04.884Z,13.18
2022-10-23T10:26:03.870Z,13.28
2022-10-23T10:28:39.426Z,13.39
2022-10-23T10:31:30.284Z,13.62
2022-10-23T10:34:15.512Z,13.74
2022-10-23T10:36:53.161Z,13.79
2022-10-23T10:39:47.353Z,13.91
2022-10-23T10:42:24.743Z,13.69
2022-10-23T10:45:39.506Z,13.82
2022-10-23T10:48:14.987Z,13.80
2022-10-23T10:51:26.137Z,13.90
2022-10-23T10:54:11.545Z,13.91
2022-10-23T10:56:40.746Z,13.90
2022-10-23T10:59:24.692Z,13.85
2022-10-23T11:02:03.963Z,13.77
2022-10-23T11:04:36.946Z,13.86
2022-10-23T11:07:11.548Z,13.79
2022-10-23T11:09:38.923Z,13.87
2022-10-23T11:12:05.700Z,13.95
2022-10-23T11:14:34.364Z,14.02
2022-10-23T11:17:17.038Z,14.02
2022-10-23T11:20:22.858Z,14.08
2022-10-23T11:23:26.702Z,14.11
2022-10-23T11:26:21.482Z,14.21
2022-10-23T11:29:21.548Z,14.44
2022-10-23T11:31:54.392Z,14.65
2022-10-23T11:34:39.975Z,14.98
2022-10-23T11:37:09.112Z,15.02
2022-10-23T11:39:37.745Z,14.97
2022-10-23T11:42:14.910Z,15.48
2022-10-23T11:44:49.702Z,15.26
2022-10-23T11:47:31.297Z,15.35
2022-10-23T11:50:08.578Z,15.35
2022-10-23T11:53:09.193Z,15.12
2022-10-23T11:55:39.744Z,15.23
2022-10-23T11:58:12.266Z,15.16
2022-10-23T12:00:49.841Z,15.20
2022-10-23T12:03:25.605Z,15.45
2022-10-23T12:05:59.979Z,15.38
2022-10-23T12:08:30.034Z,15.40
2022-10-23T12:10:57.198Z,15.53
2022-10-23T12:13:38.697Z,15.53
2022-10-23T12:16:07.641Z,15.61
2022-10-23T12:18:53.181Z,15.63
2022-10-23T12:21:28.549Z,15.72
2022-10-23T12:24:23.509Z,16.31
2022-10-23T12:27:06.379Z,16.32
2022-10-23T12:29:59.494Z,16.20
2022-10-23T12:32:46.034Z,16.29
2022-10-23T12:35:38.353Z,16.72
2022-10-23T12:38:21.792Z,16.61
2022-10-23T12:41:01.398Z,16.75
2022-10-23T12:43:31.795Z,16.70
2022-10-23T12:46:07.764Z,16.72
2022-10-23T12:48:34.506Z,16.55
2022-10-23T12:51:01.087Z,16.52
2022-10-23T12:53:27.715Z,16.59
2022-10-23T12:58:49.705Z,17.03
2022-10-23T13:01:24.154Z,16.95
2022-10-23T13:03:52.527Z,17.22
2022-10-23T13:06:19.266Z,16.88
2022-10-23T13:08:47.944Z,16.87
2022-10-23T13:11:40.706Z,16.86
2022-10-23T13:14:13.052Z,16.95
2022-10-23T13:16:39.697Z,16.83
2022-10-23T13:19:06.350Z,16.67
2022-10-23T13:21:33.001Z,16.81
2022-10-23T13:23:59.659Z,16.76
2022-10-23T13:26:45.214Z,16.73
2022-10-23T13:29:20.429Z,16.78
2022-10-23T13:31:47.351Z,17.03
2022-10-23T13:34:18.785Z,16.96
2022-10-23T13:36:53.877Z,17.05
2022-10-23T13:39:30.259Z,17.04
2022-10-23T13:42:00.051Z,17.18
2022-10-23T13:44:26.760Z,17.01
2022-10-23T13:46:53.339Z,17.25
2022-10-23T13:49:20.080Z,17.14
2022-10-23T13:51:56.672Z,17.07
2022-10-23T13:57:15.873Z,17.02
2022-10-23T13:59:42.880Z,17.01
2022-10-23T14:02:20.552Z,16.89
2022-10-23T14:04:48.281Z,16.99
2022-10-23T14:07:14.878Z,16.90
2022-10-23T14:09:41.509Z,17.01
2022-10-23T14:12:08.111Z,17.06
2022-10-23T14:14:34.907Z,17.07
2022-10-23T14:17:01.447Z,17.08
2022-10-23T14:19:28.033Z,17.09
2022-10-23T14:21:54.657Z,17.10
2022-10-23T14:24:21.212Z,17.10
2022-10-23T14:26:47.847Z,17.11
2022-10-23T14:29:21.288Z,17.04
2022-10-23T14:31:49.786Z,17.10
2022-10-23T14:34:16.858Z,17.09
2022-10-23T14:36:50.221Z,17.08
2022-10-23T14:39:17.777Z,17.07
2022-10-23T14:41:44.404Z,17.05
2022-10-23T14:44:10.997Z,17.00
2022-10-23T14:46:38.479Z,16.93
2022-10-23T14:49:05.709Z,16.86
2022-10-23T14:51:32.294Z,16.86
2022-10-23T14:54:04.740Z,16.83
2022-10-23T14:56:33.546Z,16.80
2022-10-23T14:59:03.626Z,16.81
2022-10-23T15:01:31.864Z,16.74
2022-10-23T15:03:58.812Z,16.78
2022-10-23T15:06:25.515Z,16.77
2022-10-23T15:08:55.894Z,16.79
2022-10-23T15:11:24.206Z,16.77
2022-10-23T15:13:50.983Z,16.78
2022-10-23T15:16:17.941Z,16.69
2022-10-23T15:18:44.595Z,16.80
2022-10-23T15:21:11.208Z,16.77
2022-10-23T15:23:40.334Z,16.63
2022-10-23T15:26:09.873Z,16.47
2022-10-23T15:28:36.610Z,16.54
2022-10-23T15:31:03.549Z,16.61
2022-10-23T15:33:30.182Z,16.52
2022-10-23T15:35:57.064Z,16.53
2022-10-23T15:38:24.522Z,16.43
2022-10-23T15:40:51.060Z,16.36
2022-10-23T15:43:17.668Z,16.70
2022-10-23T15:45:45.322Z,16.55
2022-10-23T15:48:12.044Z,16.35
2022-10-23T15:50:38.685Z,16.33
2022-10-23T15:53:05.384Z,16.27
2022-10-23T15:55:32.123Z,16.13
2022-10-23T15:58:04.094Z,16.05
2022-10-23T16:00:30.832Z,16.01
2022-10-23T16:02:58.029Z,15.98
2022-10-23T16:05:24.764Z,15.89
2022-10-23T16:07:51.319Z,15.83
2022-10-23T16:10:18.129Z,15.86
2022-10-23T16:12:44.920Z,15.88
2022-10-23T16:15:11.680Z,15.82
2022-10-23T16:17:38.216Z,15.97
2022-10-23T16:20:06.266Z,15.97
2022-10-23T16:22:32.823Z,15.92
2022-10-23T16:24:59.432Z,16.04
2022-10-23T16:27:26.024Z,16.01
2022-10-23T16:29:52.647Z,16.11
2022-10-23T16:32:19.469Z,16.07
2022-10-23T16:34:46.135Z,15.91
2022-10-23T16:37:12.736Z,15.86
2022-10-23T16:39:49.854Z,15.82
2022-10-23T16:42:42.299Z,15.74
2022-10-23T16:45:17.679Z,15.73
2022-10-23T16:47:44.231Z,15.59
2022-10-23T16:50:10.790Z,15.58
2022-10-23T16:52:38.646Z,15.51
2022-10-23T16:55:05.698Z,15.50
2022-10-23T16:57:32.350Z,15.53
2022-10-23T16:59:58.911Z,15.52
2022-10-23T17:02:25.662Z,15.56
2022-10-23T17:04:52.387Z,15.54
2022-10-23T17:07:19.541Z,15.54
2022-10-23T17:09:46.840Z,15.53
2022-10-23T17:12:14.194Z,15.51
2022-10-23T17:14:40.888Z,15.52
2022-10-23T17:17:09.760Z,15.50
2022-10-23T17:19:45.014Z,15.49
2022-10-23T17:22:13.418Z,15.45
2022-10-23T17:24:41.261Z,15.41
2022-10-23T17:27:08.256Z,15.32
2022-10-23T17:29:35.244Z,15.27
2022-10-23T17:32:02.009Z,15.32
2022-10-23T17:34:28.718Z,15.36
2022-10-23T17:36:56.203Z,15.35
2022-10-23T17:39:25.500Z,15.33
2022-10-23T17:41:53.422Z,15.43
2022-10-23T17:44:20.135Z,15.41
2022-10-23T17:46:50.142Z,15.36
2022-10-23T17:49:16.847Z,15.31
2022-10-23T17:51:43.448Z,15.68
2022-10-23T17:54:11.884Z,15.70
2022-10-23T17:56:38.597Z,15.67
2022-10-23T17:59:12.701Z,15.68
2022-10-23T18:01:39.958Z,15.61
2022-10-23T18:04:07.923Z,15.25
2022-10-23T18:06:37.642Z,15.12
2022-10-23T18:09:06.115Z,15.13
2022-10-23T18:11:35.509Z,15.13
2022-10-23T18:14:04.169Z,14.96
2022-10-23T18:16:30.898Z,14.75
2022-10-23T18:18:59.618Z,14.71
2022-10-23T18:21:26.647Z,14.69
2022-10-23T18:23:53.550Z,14.69
2022-10-23T18:26:23.092Z,14.81
2022-10-23T18:28:56.689Z,14.85
2022-10-23T18:31:25.520Z,14.90
2022-10-23T18:33:57.762Z,14.95
2022-10-23T18:36:28.020Z,15.03
2022-10-23T18:41:23.735Z,14.92
2022-10-23T18:43:53.991Z,14.95
2022-10-23T18:46:21.475Z,14.97
2022-10-23T18:48:50.687Z,15.00
2022-10-23T18:51:21.406Z,14.99
2022-10-23T18:53:48.337Z,14.94
2022-10-23T18:56:21.844Z,14.85
2022-10-23T18:58:58.919Z,14.73
2022-10-23T19:01:27.277Z,14.67
2022-10-23T19:06:23.655Z,14.61
2022-10-23T19:08:51.025Z,14.51
2022-10-23T19:11:19.397Z,14.58
2022-10-23T19:13:45.994Z,14.49
2022-10-23T19:16:20.774Z,14.43
2022-10-23T19:18:50.506Z,14.39
2022-10-23T19:21:20.369Z,14.43
2022-10-23T19:23:48.585Z,14.57
2022-10-23T19:26:15.779Z,14.62
2022-10-23T19:28:46.852Z,14.52
2022-10-23T19:31:13.934Z,14.45
2022-10-23T19:33:40.550Z,14.44
2022-10-23T19:36:11.090Z,14.52
2022-10-23T19:38:40.854Z,14.49
2022-10-23T19:41:07.864Z,14.43
2022-10-23T19:43:34.563Z,14.35
2022-10-23T19:46:05.042Z,14.31
2022-10-23T19:48:34.517Z,14.31
2022-10-23T19:51:01.236Z,14.28
2022-10-23T19:53:27.816Z,14.25
2022-10-23T19:56:05.966Z,14.28
2022-10-23T19:58:32.726Z,14.22
2022-10-23T20:00:59.509Z,14.20
2022-10-23T20:03:26.258Z,14.13
2022-10-23T20:05:52.845Z,14.19
2022-10-23T20:08:19.533Z,14.25
2022-10-23T20:10:47.980Z,14.32
2022-10-23T20:13:19.995Z,14.25
2022-10-23T20:15:47.222Z,14.28
2022-10-23T20:18:13.799Z,14.28
2022-10-23T20:20:41.495Z,14.25
2022-10-23T20:23:08.146Z,14.28
2022-10-23T20:25:34.782Z,14.29
2022-10-23T20:28:01.443Z,14.23
2022-10-23T20:30:29.552Z,14.16
2022-10-23T20:32:56.291Z,14.08
2022-10-23T20:35:22.948Z,14.09
2022-10-23T20:37:49.558Z,13.97
2022-10-23T20:40:18.800Z,14.02
2022-10-23T20:42:45.491Z,14.07
2022-10-23T20:45:12.076Z,14.03
2022-10-23T20:47:38.704Z,13.99
2022-10-23T20:50:05.658Z,13.89
2022-10-23T20:54:59.859Z,13.84
2022-10-23T20:57:26.417Z,14.00
2022-10-23T20:59:53.256Z,14.01
2022-10-23T21:02:19.911Z,13.98
2022-10-23T21:04:47.738Z,13.95
2022-10-23T21:07:18.220Z,13.96
2022-10-23T21:09:44.893Z,13.91
2022-10-23T21:12:11.513Z,13.97
2022-10-23T21:14:38.165Z,13.79
2022-10-23T21:17:05.142Z,13.76
2022-10-23T21:19:31.748Z,13.75
2022-10-23T21:21:58.300Z,13.75
2022-10-23T21:24:24.829Z,13.72
2022-10-23T21:26:51.514Z,13.68
2022-10-23T21:29:20.366Z,13.72
2022-10-23T21:31:58.872Z,13.77
2022-10-23T21:34:26.691Z,13.70
2022-10-23T21:37:11.889Z,13.68
2022-10-23T21:39:39.599Z,13.65
2022-10-23T21:42:06.568Z,13.60
2022-10-23T21:44:33.237Z,13.59
2022-10-23T21:46:59.785Z,13.55
2022-10-23T21:49:26.380Z,13.52
2022-10-23T21:51:55.062Z,13.44
2022-10-23T21:54:22.424Z,13.44
2022-10-23T21:56:53.753Z,13.41
2022-10-23T21:59:22.894Z,13.45
2022-10-23T22:01:49.856Z,13.39
2022-10-23T22:04:18.595Z,13.48
2022-10-23T22:06:46.827Z,13.44
2022-10-23T22:09:16.312Z,13.40
2022-10-23T22:11:43.311Z,13.23
2022-10-23T22:14:09.998Z,13.33
2022-10-23T22:16:36.672Z,13.23
2022-10-23T22:19:03.869Z,13.19
2022-10-23T22:21:30.775Z,13.32
2022-10-23T22:23:59.918Z,13.45
2022-10-23T22:26:38.346Z,13.25
2022-10-23T22:29:10.861Z,13.21
2022-10-23T22:31:38.878Z,13.05
2022-10-23T22:34:18.940Z,13.14
2022-10-23T22:36:56.112Z,13.04
2022-10-23T22:39:23.813Z,13.04
2022-10-23T22:41:50.537Z,12.95
2022-10-23T22:44:17.278Z,12.97
2022-10-23T22:46:44.568Z,13.00
2022-10-23T22:49:11.448Z,12.95
2022-10-23T22:51:39.739Z,12.90
2022-10-23T22:54:06.473Z,13.02
2022-10-23T22:56:34.441Z,12.94
2022-10-23T22:59:00.995Z,13.01
2022-10-23T23:01:32.587Z,12.82
2022-10-23T23:04:08.735Z,12.80
2022-10-23T23:06:46.972Z,12.78
2022-10-23T23:09:17.852Z,12.80
2022-10-23T23:11:51.416Z,12.75
2022-10-23T23:14:22.029Z,12.78
2022-10-23T23:16:50.559Z,12.76
2022-10-23T23:19:17.102Z,12.70
2022-10-23T23:21:43.653Z,12.65
2022-10-23T23:24:11.907Z,12.79
2022-10-23T23:26:38.741Z,12.70
2022-10-23T23:29:05.306Z,12.81
2022-10-23T23:31:31.907Z,12.71
2022-10-23T23:33:58.509Z,12.69
2022-10-23T23:36:27.714Z,12.66
2022-10-23T23:38:56.110Z,12.67
2022-10-23T23:41:24.274Z,12.62
2022-10-23T23:43:50.866Z,12.70
2022-10-23T23:46:17.896Z,12.87
2022-10-23T23:48:48.090Z,12.71
2022-10-23T23:51:20.398Z,12.78
2022-10-23T23:53:47.782Z,12.77
2022-10-23T23:56:14.476Z,13.19
2022-10-23T23:58:41.099Z,13.17
